createdAt,value
2017-02-17T00:00:09.050Z,0
2017-02-17T00:02:32.495Z,0
2017-02-17T00:04:55.926Z,0
2017-02-17T00:07:19.831Z,0
2017-02-17T00:09:35.014Z,0
2017-02-17T00:11:44.815Z,0
2017-02-17T00:14:09.485Z,0
2017-02-17T00:16:33.082Z,0
2017-02-17T00:18:56.769Z,0
2017-02-17T00:21:21.096Z,0
2017-02-17T00:23:44.853Z,0
2017-02-17T00:26:08.497Z,0
2017-02-17T00:30:36.373Z,0
2017-02-17T00:33:02.661Z,0
2017-02-17T00:35:26.311Z,0
2017-02-17T00:37:50.082Z,0
2017-02-17T00:40:18.818Z,0
2017-02-17T00:42:45.567Z,0
2017-02-17T00:45:11.337Z,0
2017-02-17T00:47:37.143Z,0
2017-02-17T00:50:01.993Z,0
2017-02-17T00:52:26.710Z,0
2017-02-17T00:54:51.439Z,0
2017-02-17T00:57:17.806Z,0
2017-02-17T00:59:42.375Z,0
2017-02-17T01:02:07.261Z,0
2017-02-17T01:04:31.667Z,0
2017-02-17T01:06:55.206Z,0
2017-02-17T01:09:19.830Z,0
2017-02-17T01:11:44.489Z,0
2017-02-17T01:14:10.393Z,0
2017-02-17T01:16:41.771Z,0
2017-02-17T01:19:07.708Z,0
2017-02-17T01:21:32.513Z,0
2017-02-17T01:23:57.254Z,0
2017-02-17T01:26:23.657Z,0
2017-02-17T01:28:48.133Z,0
2017-02-17T01:31:11.087Z,0
2017-02-17T01:33:34.708Z,0
2017-02-17T01:35:58.943Z,0
2017-02-17T01:38:22.811Z,0
2017-02-17T01:40:49.433Z,0
2017-02-17T01:43:12.851Z,0
2017-02-17T01:45:37.122Z,0
2017-02-17T01:48:00.924Z,0
2017-02-17T01:50:42.993Z,0
2017-02-17T01:53:14.688Z,0
2017-02-17T01:55:46.417Z,0
2017-02-17T01:58:12.697Z,0
2017-02-17T02:00:44.260Z,0
2017-02-17T02:03:10.474Z,0
2017-02-17T02:17:28.893Z,0
2017-02-17T02:19:52.980Z,0
2017-02-17T02:22:16.526Z,0
2017-02-17T02:24:40.210Z,0
2017-02-17T02:27:03.923Z,0
2017-02-17T02:29:27.587Z,0
2017-02-17T02:31:51.191Z,0
2017-02-17T02:34:15.207Z,0
2017-02-17T02:36:38.868Z,0
2017-02-17T02:39:03.417Z,0
2017-02-17T02:41:26.834Z,0
2017-02-17T02:43:51.538Z,0
2017-02-17T02:46:15.428Z,0
2017-02-17T02:48:39.340Z,0
2017-02-17T02:51:02.932Z,0
2017-02-17T02:53:28.661Z,0
2017-02-17T02:55:52.315Z,0
2017-02-17T02:58:16.705Z,0
2017-02-17T03:00:28.465Z,0
2017-02-17T03:02:52.161Z,0
2017-02-17T03:05:22.345Z,0
2017-02-17T03:09:48.129Z,0
2017-02-17T03:12:11.658Z,0
2017-02-17T03:14:35.229Z,0
2017-02-17T03:16:59.534Z,0
2017-02-17T03:19:22.783Z,0
2017-02-17T03:23:22.418Z,0
2017-02-17T03:25:46.495Z,0
2017-02-17T03:29:48.756Z,0
2017-02-17T03:32:12.185Z,0
2017-02-17T03:34:35.870Z,0
2017-02-17T03:36:59.442Z,0
2017-02-17T03:39:23.288Z,0
2017-02-17T03:41:46.740Z,0
2017-02-17T03:44:10.402Z,0
2017-02-17T03:46:35.744Z,0
2017-02-17T03:48:59.779Z,0
2017-02-17T03:51:15.331Z,0
2017-02-17T03:53:39.198Z,0
2017-02-17T03:56:03.086Z,0
2017-02-17T03:58:28.073Z,0
2017-02-17T04:00:53.233Z,0
2017-02-17T04:04:55.053Z,0
2017-02-17T04:07:17.813Z,0
2017-02-17T04:09:41.422Z,0
2017-02-17T04:12:04.930Z,0
2017-02-17T04:14:28.518Z,0
2017-02-17T04:16:52.037Z,0
2017-02-17T04:19:15.440Z,0
2017-02-17T04:21:38.879Z,0
2017-02-17T04:24:04.404Z,0
2017-02-17T04:26:28.893Z,0
2017-02-17T04:28:52.383Z,0
2017-02-17T04:31:15.925Z,0
2017-02-17T04:33:39.327Z,0
2017-02-17T04:36:02.821Z,0
2017-02-17T04:38:26.335Z,0
2017-02-17T04:40:49.907Z,0
2017-02-17T04:43:13.541Z,0
2017-02-17T04:45:36.773Z,0
2017-02-17T04:48:07.231Z,0
2017-02-17T04:50:31.062Z,0
2017-02-17T04:52:54.493Z,0
2017-02-17T04:55:17.927Z,0
2017-02-17T04:57:41.715Z,0
2017-02-17T05:00:05.629Z,0
2017-02-17T05:02:29.037Z,0
2017-02-17T05:04:54.681Z,0
2017-02-17T05:07:18.586Z,0
2017-02-17T05:09:42.245Z,0
2017-02-17T05:12:08.037Z,0
2017-02-17T05:14:32.916Z,0
2017-02-17T05:16:57.702Z,0
2017-02-17T05:19:20.632Z,0
2017-02-17T05:21:44.636Z,0
2017-02-17T05:24:08.343Z,0
2017-02-17T05:26:31.995Z,0
2017-02-17T05:28:58.626Z,0
2017-02-17T05:31:22.291Z,0
2017-02-17T05:33:46.166Z,0
2017-02-17T05:36:10.095Z,0
2017-02-17T05:38:34.348Z,0
2017-02-17T05:40:59.401Z,0
2017-02-17T05:43:24.218Z,0
2017-02-17T05:45:47.721Z,0
2017-02-17T05:48:12.518Z,0
2017-02-17T05:50:36.305Z,0
2017-02-17T05:53:00.847Z,0
2017-02-17T05:55:24.242Z,0
2017-02-17T05:57:50.122Z,0
2017-02-17T06:00:14.811Z,0
2017-02-17T06:02:38.454Z,0
2017-02-17T06:05:02.068Z,0
2017-02-17T06:07:27.403Z,0
2017-02-17T06:09:51.474Z,0
2017-02-17T06:12:16.052Z,0
2017-02-17T06:14:40.356Z,0
2017-02-17T06:17:04.870Z,0
2017-02-17T06:19:28.727Z,4
2017-02-17T06:21:52.847Z,0
2017-02-17T06:24:16.523Z,4
2017-02-17T06:26:40.063Z,4
2017-02-17T06:31:05.501Z,8
2017-02-17T06:35:05.402Z,12
2017-02-17T06:37:29.300Z,12
2017-02-17T06:39:52.554Z,12
2017-02-17T06:42:16.327Z,20
2017-02-17T06:44:39.879Z,24
2017-02-17T06:47:03.459Z,28
2017-02-17T06:49:27.546Z,24
2017-02-17T06:51:51.057Z,24
2017-02-17T06:54:15.826Z,28
2017-02-17T06:56:46.374Z,32
2017-02-17T06:59:09.774Z,52
2017-02-17T07:04:13.209Z,72
2017-02-17T07:06:37.202Z,96
2017-02-17T07:09:04.150Z,112
2017-02-17T07:11:28.399Z,132
2017-02-17T07:13:52.173Z,136
2017-02-17T07:16:17.439Z,144
2017-02-17T07:18:41.715Z,160
2017-02-17T07:21:05.164Z,180
2017-02-17T07:23:28.726Z,208
2017-02-17T07:25:52.100Z,248
2017-02-17T07:28:15.524Z,260
2017-02-17T07:30:40.839Z,300
2017-02-17T07:33:12.274Z,312
2017-02-17T07:35:36.588Z,288
2017-02-17T07:38:00.537Z,344
2017-02-17T07:40:25.866Z,408
2017-02-17T07:42:41.541Z,476
2017-02-17T07:45:06.208Z,520
2017-02-17T07:47:29.624Z,548
2017-02-17T07:49:53.447Z,556
2017-02-17T07:52:17.562Z,568
2017-02-17T07:54:41.347Z,648
2017-02-17T07:57:05.624Z,632
2017-02-17T07:59:29.550Z,716
2017-02-17T08:01:55.474Z,708
2017-02-17T08:04:18.944Z,660
2017-02-17T08:06:42.501Z,860
2017-02-17T08:09:06.396Z,1240
2017-02-17T08:11:29.832Z,2000
2017-02-17T08:13:54.656Z,3796
2017-02-17T08:16:18.617Z,7704
2017-02-17T08:18:42.793Z,9056
2017-02-17T08:21:07.707Z,15776
2017-02-17T08:23:31.909Z,18496
2017-02-17T08:25:56.513Z,26720
2017-02-17T08:28:23.610Z,31136
2017-02-17T08:30:47.802Z,34944
2017-02-17T08:33:12.245Z,34176
2017-02-17T08:35:36.665Z,24224
2017-02-17T08:38:00.937Z,33664
2017-02-17T08:40:25.754Z,32160
2017-02-17T08:42:50.838Z,26592
2017-02-17T08:45:16.587Z,8236
2017-02-17T08:47:43.261Z,25696
2017-02-17T08:50:08.171Z,9260
2017-02-17T08:52:34.112Z,2376
2017-02-17T08:54:58.522Z,2204
2017-02-17T08:57:23.746Z,20448
2017-02-17T08:59:48.267Z,32672
2017-02-17T09:02:12.215Z,34176
2017-02-17T09:04:40.993Z,32256
2017-02-17T09:07:05.346Z,35424
2017-02-17T09:09:30.496Z,32928
2017-02-17T09:11:55.681Z,25344
2017-02-17T09:14:20.583Z,9220
2017-02-17T09:16:45.126Z,8708
2017-02-17T09:19:10.456Z,8184
2017-02-17T09:21:35.967Z,7908
2017-02-17T09:24:00.560Z,8172
2017-02-17T09:26:25.046Z,7452
2017-02-17T09:28:50.768Z,6660
2017-02-17T09:31:15.255Z,5984
2017-02-17T09:33:41.581Z,4924
2017-02-17T09:36:06.693Z,3980
2017-02-17T09:38:30.963Z,5204
2017-02-17T09:40:54.957Z,6728
2017-02-17T09:43:19.223Z,6628
2017-02-17T09:45:44.124Z,6084
2017-02-17T09:48:08.816Z,6676
2017-02-17T09:50:34.042Z,6520
2017-02-17T09:52:58.554Z,6076
2017-02-17T09:55:22.585Z,4320
2017-02-17T09:57:47.576Z,3184
2017-02-17T10:00:11.562Z,2824
2017-02-17T10:02:35.600Z,1880
2017-02-17T10:04:59.445Z,2176
2017-02-17T10:07:23.986Z,1308
2017-02-17T10:09:48.748Z,1300
2017-02-17T10:12:12.538Z,1052
2017-02-17T10:14:36.195Z,700
2017-02-17T10:17:01.680Z,832
2017-02-17T10:19:39.764Z,1256
2017-02-17T10:22:03.230Z,1096
2017-02-17T10:24:27.014Z,1612
2017-02-17T10:26:52.719Z,2364
2017-02-17T10:29:24.507Z,3580
2017-02-17T10:31:50.096Z,2372
2017-02-17T10:34:14.900Z,2596
2017-02-17T10:36:39.504Z,2204
2017-02-17T10:39:03.242Z,2460
2017-02-17T10:41:28.447Z,2748
2017-02-17T10:43:53.015Z,2120
2017-02-17T10:46:16.653Z,1460
2017-02-17T10:48:40.550Z,948
2017-02-17T10:51:04.404Z,924
2017-02-17T10:53:28.264Z,1248
2017-02-17T10:55:52.127Z,2144
2017-02-17T10:58:16.949Z,2236
2017-02-17T11:00:40.791Z,2072
2017-02-17T11:03:04.619Z,1504
2017-02-17T11:05:28.457Z,1524
2017-02-17T11:07:51.982Z,1236
2017-02-17T11:10:15.578Z,944
2017-02-17T11:12:41.444Z,572
2017-02-17T11:15:06.810Z,444
2017-02-17T11:17:45.481Z,380
2017-02-17T11:20:09.073Z,352
2017-02-17T11:22:35.140Z,252
2017-02-17T11:24:59.938Z,288
2017-02-17T11:27:23.865Z,372
2017-02-17T11:29:48.766Z,420
2017-02-17T11:32:12.845Z,424
2017-02-17T11:34:36.342Z,400
2017-02-17T11:37:00.607Z,376
2017-02-17T11:41:02.537Z,460
2017-02-17T11:43:30.922Z,476
2017-02-17T11:45:56.273Z,500
2017-02-17T11:48:20.294Z,528
2017-02-17T11:50:43.919Z,728
2017-02-17T11:54:47.314Z,756
2017-02-17T11:57:14.343Z,908
2017-02-17T11:59:40.349Z,896
2017-02-17T12:02:06.171Z,768
2017-02-17T12:04:32.725Z,584
2017-02-17T12:07:00.548Z,464
2017-02-17T12:09:24.428Z,444
2017-02-17T12:11:47.993Z,456
2017-02-17T12:14:11.757Z,892
2017-02-17T12:16:37.292Z,1100
2017-02-17T12:18:53.517Z,1508
2017-02-17T12:21:19.398Z,1880
2017-02-17T12:23:42.842Z,1868
2017-02-17T12:25:58.150Z,1640
2017-02-17T12:28:21.797Z,2052
2017-02-17T12:30:45.623Z,1964
2017-02-17T12:33:09.384Z,2000
2017-02-17T12:35:34.622Z,2132
2017-02-17T12:38:00.366Z,2144
2017-02-17T12:40:25.055Z,1940
2017-02-17T12:42:48.883Z,2092
2017-02-17T12:45:04.280Z,1776
2017-02-17T12:47:29.839Z,1652
2017-02-17T12:50:00.279Z,1372
2017-02-17T12:52:25.918Z,1164
2017-02-17T12:54:52.233Z,1088
2017-02-17T12:57:16.316Z,992
2017-02-17T13:01:15.895Z,1232
2017-02-17T13:03:46.445Z,1268
2017-02-17T13:06:10.300Z,1128
2017-02-17T13:08:34.876Z,972
2017-02-17T13:10:58.727Z,848
2017-02-17T13:13:23.348Z,716
2017-02-17T13:15:46.940Z,748
2017-02-17T13:18:10.440Z,848
2017-02-17T13:20:34.507Z,972
2017-02-17T13:22:58.071Z,1064
2017-02-17T13:25:22.724Z,1004
2017-02-17T13:27:47.041Z,1056
2017-02-17T13:30:11.512Z,1248
2017-02-17T13:32:38.029Z,1316
2017-02-17T13:35:01.933Z,1412
2017-02-17T13:37:26.529Z,1532
2017-02-17T13:39:50.675Z,1448
2017-02-17T13:42:14.236Z,1460
2017-02-17T13:44:37.856Z,1320
2017-02-17T13:47:02.477Z,1140
2017-02-17T13:49:26.879Z,924
2017-02-17T13:53:53.338Z,744
2017-02-17T13:56:17.756Z,680
2017-02-17T13:58:41.216Z,624
2017-02-17T14:01:06.890Z,540
2017-02-17T14:03:30.677Z,412
2017-02-17T14:05:54.197Z,292
2017-02-17T14:10:21.516Z,212
2017-02-17T14:12:45.484Z,204
2017-02-17T14:15:16.963Z,212
2017-02-17T14:17:41.854Z,192
2017-02-17T14:20:05.582Z,212
2017-02-17T14:22:32.348Z,272
2017-02-17T14:24:57.936Z,376
2017-02-17T14:27:17.256Z,408
2017-02-17T14:29:40.971Z,384
2017-02-17T14:32:08.184Z,332
2017-02-17T14:34:32.643Z,304
2017-02-17T14:36:56.095Z,280
2017-02-17T14:39:20.361Z,260
2017-02-17T14:41:44.801Z,232
2017-02-17T14:44:09.263Z,224
2017-02-17T14:46:34.878Z,212
2017-02-17T14:49:00.095Z,216
2017-02-17T14:51:25.918Z,216
2017-02-17T14:53:57.281Z,200
2017-02-17T14:56:21.401Z,164
2017-02-17T14:58:46.569Z,156
2017-02-17T15:01:11.074Z,160
2017-02-17T15:08:10.835Z,168
2017-02-17T15:19:20.074Z,208
2017-02-17T15:21:44.233Z,176
2017-02-17T15:24:10.335Z,168
2017-02-17T15:26:37.411Z,184
2017-02-17T15:31:37.850Z,144
2017-02-17T15:34:02.648Z,144
2017-02-17T15:36:26.616Z,144
2017-02-17T15:38:51.543Z,148
2017-02-17T15:41:15.474Z,152
2017-02-17T15:43:41.396Z,156
2017-02-17T15:46:05.898Z,164
2017-02-17T15:50:46.138Z,164
2017-02-17T15:53:10.639Z,152
2017-02-17T15:55:28.723Z,136
2017-02-17T15:57:53.882Z,116
2017-02-17T16:20:48.783Z,52
2017-02-17T16:23:12.769Z,44
2017-02-17T16:25:37.490Z,36
2017-02-17T16:28:03.020Z,32
2017-02-17T16:30:22.140Z,32
2017-02-17T16:32:50.325Z,28
2017-02-17T16:35:14.857Z,24
2017-02-17T16:37:41.209Z,20
2017-02-17T16:40:04.945Z,16
2017-02-17T16:42:28.804Z,16
2017-02-17T16:44:53.415Z,12
2017-02-17T16:47:19.035Z,12
2017-02-17T16:49:43.550Z,8
2017-02-17T16:52:07.525Z,8
2017-02-17T16:54:31.279Z,8
2017-02-17T16:56:54.964Z,4
2017-02-17T16:59:18.490Z,0
2017-02-17T17:01:46.170Z,4
2017-02-17T17:04:13.670Z,0
2017-02-17T17:06:37.559Z,0
2017-02-17T17:09:02.046Z,0
2017-02-17T17:11:26.611Z,0
2017-02-17T17:13:53.029Z,0
2017-02-17T17:16:17.564Z,0
2017-02-17T17:18:42.375Z,0
2017-02-17T17:23:10.582Z,0
2017-02-17T17:25:34.972Z,0
2017-02-17T17:27:51.985Z,0
2017-02-17T17:30:15.777Z,0
2017-02-17T17:32:40.588Z,0
2017-02-17T17:35:05.501Z,0
2017-02-17T17:37:31.210Z,0
2017-02-17T17:39:55.185Z,0
2017-02-17T17:42:19.178Z,0
2017-02-17T17:44:42.905Z,0
2017-02-17T17:47:06.329Z,0
2017-02-17T17:49:30.814Z,0
2017-02-17T17:51:54.305Z,0
2017-02-17T17:54:17.632Z,0
2017-02-17T17:56:43.317Z,0
2017-02-17T17:58:58.668Z,0
2017-02-17T18:01:22.319Z,0
2017-02-17T18:03:46.147Z,0
2017-02-17T18:06:09.572Z,0
2017-02-17T18:08:32.866Z,0
2017-02-17T18:10:56.355Z,0
2017-02-17T18:13:20.594Z,0
2017-02-17T18:15:44.365Z,0
2017-02-17T18:18:08.900Z,0
2017-02-17T18:20:32.367Z,0
2017-02-17T18:22:55.832Z,0
2017-02-17T18:25:20.623Z,0
2017-02-17T18:27:44.525Z,0
2017-02-17T18:30:08.092Z,0
2017-02-17T18:32:31.961Z,0
2017-02-17T18:34:55.861Z,0
2017-02-17T18:37:19.302Z,0
2017-02-17T18:39:42.876Z,0
2017-02-17T18:42:10.199Z,0
2017-02-17T18:44:34.732Z,0
2017-02-17T18:46:59.122Z,0
2017-02-17T18:49:23.849Z,0
2017-02-17T18:51:47.165Z,0
2017-02-17T18:54:12.184Z,0
2017-02-17T18:56:36.559Z,0
2017-02-17T18:59:00.483Z,0
2017-02-17T19:01:24.855Z,0
2017-02-17T19:03:48.218Z,0
2017-02-17T19:06:18.170Z,0
2017-02-17T19:08:49.500Z,0
2017-02-17T19:11:13.776Z,0
2017-02-17T19:13:37.256Z,0
2017-02-17T19:16:00.675Z,0
2017-02-17T19:18:23.836Z,0
2017-02-17T19:20:54.214Z,0
2017-02-17T19:23:17.488Z,0
2017-02-17T19:25:40.939Z,0
2017-02-17T19:28:04.563Z,0
2017-02-17T19:30:29.674Z,0
2017-02-17T19:32:52.997Z,0
2017-02-17T19:35:16.292Z,0
2017-02-17T19:37:39.581Z,0
2017-02-17T19:40:03.795Z,0
2017-02-17T19:42:27.158Z,0
2017-02-17T19:44:50.698Z,0
2017-02-17T19:49:17.066Z,0
2017-02-17T19:51:27.760Z,0
2017-02-17T19:53:51.289Z,0
2017-02-17T19:56:14.682Z,0
2017-02-17T19:58:40.042Z,0
2017-02-17T20:01:04.319Z,0
2017-02-17T20:03:28.658Z,0
2017-02-17T20:05:52.290Z,0
2017-02-17T20:08:17.477Z,0
2017-02-17T20:10:41.773Z,0
2017-02-17T20:13:05.059Z,0
2017-02-17T20:15:28.375Z,0
2017-02-17T20:17:51.655Z,0
2017-02-17T20:20:06.571Z,0
2017-02-17T20:22:31.215Z,0
2017-02-17T20:24:56.829Z,0
2017-02-17T20:27:22.269Z,0
2017-02-17T20:29:46.599Z,0
2017-02-17T20:32:10.834Z,0
2017-02-17T20:34:35.146Z,0
2017-02-17T20:36:59.698Z,0
2017-02-17T20:39:23.245Z,0
2017-02-17T20:41:46.598Z,0
2017-02-17T20:44:11.046Z,0
2017-02-17T20:46:34.550Z,0
2017-02-17T20:48:57.782Z,0
2017-02-17T20:51:21.426Z,0
2017-02-17T20:53:44.738Z,0
2017-02-17T20:56:08.048Z,0
2017-02-17T20:58:32.369Z,0
2017-02-17T21:00:56.580Z,0
2017-02-17T21:03:20.220Z,0
2017-02-17T21:05:44.713Z,0
2017-02-17T21:08:14.599Z,0
2017-02-17T21:10:37.928Z,0
2017-02-17T21:13:01.183Z,0
2017-02-17T21:15:16.082Z,0
2017-02-17T21:17:40.383Z,0
2017-02-17T21:20:05.711Z,0
2017-02-17T21:22:30.075Z,0
2017-02-17T21:24:54.275Z,0
2017-02-17T21:29:28.258Z,0
2017-02-17T21:31:53.696Z,0
2017-02-17T21:34:17.116Z,0
2017-02-17T21:36:40.331Z,0
2017-02-17T21:39:03.609Z,0
2017-02-17T21:41:33.743Z,0
2017-02-17T21:43:56.940Z,0
2017-02-17T21:46:22.219Z,0
2017-02-17T21:48:46.504Z,0
2017-02-17T21:51:09.841Z,0
2017-02-17T21:53:33.024Z,0
2017-02-17T21:55:57.315Z,0
2017-02-17T21:58:29.423Z,0
2017-02-17T22:00:53.059Z,0
2017-02-17T22:03:16.514Z,0
2017-02-17T22:05:40.867Z,0
2017-02-17T22:08:04.178Z,0
2017-02-17T22:10:27.516Z,0
2017-02-17T22:12:50.970Z,0
2017-02-17T22:15:15.294Z,0
2017-02-17T22:17:41.524Z,0
2017-02-17T22:20:07.624Z,0
2017-02-17T22:22:32.268Z,0
2017-02-17T22:24:56.990Z,0
2017-02-17T22:27:20.727Z,0
2017-02-17T22:29:43.969Z,0
2017-02-17T22:32:07.298Z,0
2017-02-17T22:34:30.539Z,0
2017-02-17T22:36:54.016Z,0
2017-02-17T22:39:17.397Z,0
2017-02-17T22:41:40.692Z,0
2017-02-17T22:44:04.077Z,0
2017-02-17T22:46:27.286Z,0
2017-02-17T22:48:50.570Z,0
2017-02-17T22:51:14.026Z,0
2017-02-17T22:53:37.367Z,0
2017-02-17T22:56:02.300Z,0
2017-02-17T22:58:25.791Z,0
2017-02-17T23:00:49.056Z,0
2017-02-17T23:03:12.333Z,0
2017-02-17T23:05:39.814Z,0
2017-02-17T23:08:11.032Z,0
2017-02-17T23:10:35.813Z,0
2017-02-17T23:13:03.207Z,0
2017-02-17T23:15:30.340Z,0
2017-02-17T23:17:53.862Z,0
2017-02-17T23:20:17.145Z,0
2017-02-17T23:22:40.395Z,0
2017-02-17T23:25:03.638Z,0
2017-02-17T23:27:30.292Z,0
2017-02-17T23:29:55.463Z,0
2017-02-17T23:32:10.600Z,0
2017-02-17T23:34:34.783Z,0
2017-02-17T23:37:01.221Z,0
2017-02-17T23:39:25.395Z,0
2017-02-17T23:41:40.298Z,0
2017-02-17T23:44:04.202Z,0
2017-02-17T23:46:27.598Z,0
2017-02-17T23:48:51.174Z,0
2017-02-17T23:51:14.440Z,0
2017-02-17T23:53:37.865Z,0
2017-02-17T23:55:55.786Z,0
2017-02-17T23:58:19.617Z,0
